Time;durP1;ratioP1;P1;durP2;ratioP2;P2;SDS_P1;SDS_P2;PMS_P1;PMS_P2;Temp;Humidity;BMP_temperature;BMP_pressure;BME280_temperature;BME280_humidity;BME280_pressure;Samples;Min_cycle;Max_cycle;Signal;HPM_P1;HPM_P2
2022/10/06 00:00:19;;;;;;;7.57;5.00;;;13.50;99.90;;;;;;5012933;28;20105;-75
2022/10/06 00:02:45;;;;;;;8.65;5.22;;;13.50;99.90;;;;;;5011624;28;20061;-74
2022/10/06 00:05:11;;;;;;;5.70;5.07;;;13.50;99.90;;;;;;5016969;28;20014;-74
2022/10/06 00:07:37;;;;;;;10.02;5.57;;;13.50;99.90;;;;;;5032447;28;20455;-74
2022/10/06 00:10:04;;;;;;;7.25;5.00;;;13.50;99.90;;;;;;5032494;28;20026;-74
2022/10/06 00:12:36;;;;;;;6.90;5.50;;;13.50;99.90;;;;;;5032364;28;20029;-74
2022/10/06 00:15:02;;;;;;;7.03;5.63;;;13.50;99.90;;;;;;5032469;28;20033;-74
2022/10/06 00:17:28;;;;;;;8.18;5.60;;;13.50;99.90;;;;;;5032303;28;20512;-74
2022/10/06 00:19:53;;;;;;;6.95;5.15;;;13.50;99.90;;;;;;5030973;28;20029;-74
2022/10/06 00:22:19;;;;;;;8.13;5.50;;;13.50;99.90;;;;;;5032115;28;20034;-74
2022/10/06 00:24:44;;;;;;;9.20;5.40;;;13.40;99.90;;;;;;5032323;28;20434;-74
2022/10/06 00:27:10;;;;;;;7.20;4.95;;;13.40;99.90;;;;;;5032172;28;20471;-74
2022/10/06 00:29:35;;;;;;;6.43;5.20;;;13.40;99.90;;;;;;5032171;28;20033;-73
2022/10/06 00:32:01;;;;;;;7.00;5.20;;;13.40;99.90;;;;;;5032114;28;20104;-74
2022/10/06 00:34:26;;;;;;;7.57;5.15;;;13.40;99.90;;;;;;5032127;28;20100;-74
2022/10/06 00:36:52;;;;;;;8.60;5.43;;;13.30;99.90;;;;;;5031993;28;20036;-75
2022/10/06 00:39:19;;;;;;;6.38;5.30;;;13.40;99.90;;;;;;5031933;28;20028;-74
2022/10/06 00:41:44;;;;;;;8.50;6.07;;;13.30;99.90;;;;;;5032127;28;20432;-74
2022/10/06 00:44:10;;;;;;;11.00;5.70;;;13.30;99.90;;;;;;5031916;28;20025;-74
2022/10/06 00:46:43;;;;;;;6.78;5.60;;;13.30;99.90;;;;;;5031862;28;20486;-74
2022/10/06 00:49:29;;;;;;;9.90;5.47;;;13.20;99.90;;;;;;5031694;28;20101;-74
2022/10/06 00:52:01;;;;;;;8.57;4.90;;;13.10;99.90;;;;;;5030651;28;20033;-74
2022/10/06 00:54:27;;;;;;;7.05;5.10;;;13.20;99.90;;;;;;5030494;28;20032;-74
2022/10/06 00:56:53;;;;;;;7.65;4.85;;;13.10;99.90;;;;;;5031548;28;20049;-74
2022/10/06 00:59:19;;;;;;;6.95;5.15;;;13.20;99.90;;;;;;5031727;28;20068;-74
2022/10/06 01:02:00;;;;;;;6.22;5.15;;;13.00;99.90;;;;;;5030348;28;20526;-74
2022/10/06 01:04:31;;;;;;;9.30;5.43;;;12.90;99.90;;;;;;5031826;28;20025;-73
2022/10/06 01:06:58;;;;;;;6.10;4.97;;;12.90;99.90;;;;;;5030997;28;20025;-74
2022/10/06 01:09:24;;;;;;;6.60;5.07;;;13.00;99.90;;;;;;5031629;28;20033;-74
2022/10/06 01:11:52;;;;;;;9.73;5.40;;;12.90;99.90;;;;;;5030145;28;20030;-74
2022/10/06 01:14:20;;;;;;;7.30;5.30;;;12.70;99.90;;;;;;5031649;28;20030;-74
2022/10/06 01:16:52;;;;;;;6.70;5.25;;;12.80;99.90;;;;;;5018728;28;20555;-74
2022/10/06 01:19:46;;;;;;;7.95;5.00;;;12.80;99.90;;;;;;5030250;28;20064;-74
2022/10/06 01:22:15;;;;;;;6.65;5.20;;;12.90;99.90;;;;;;5031322;28;20448;-74
2022/10/06 01:24:41;;;;;;;6.60;5.07;;;12.90;99.90;;;;;;5030192;28;20523;-74
2022/10/06 01:27:09;;;;;;;7.78;5.05;;;12.80;99.90;;;;;;5031333;28;20037;-74
2022/10/06 01:29:35;;;;;;;8.45;5.10;;;12.80;99.90;;;;;;5031456;28;20444;-74
2022/10/06 01:32:01;;;;;;;7.38;4.90;;;12.90;99.90;;;;;;5031362;28;20431;-74
2022/10/06 01:34:27;;;;;;;8.85;4.70;;;12.90;99.90;;;;;;5031352;28;20533;-75
2022/10/06 01:36:53;;;;;;;5.93;5.18;;;12.80;99.90;;;;;;5029889;28;20037;-74
2022/10/06 01:39:19;;;;;;;7.95;5.30;;;12.80;99.90;;;;;;5029975;28;20116;-75
2022/10/06 01:41:46;;;;;;;7.15;4.72;;;12.80;99.90;;;;;;5031308;28;20113;-74
2022/10/06 01:44:13;;;;;;;6.18;4.82;;;12.80;99.90;;;;;;5031317;28;20108;-74
2022/10/06 01:46:38;;;;;;;7.25;4.93;;;12.90;99.90;;;;;;5031261;28;20044;-74
2022/10/06 01:49:04;;;;;;;6.13;4.57;;;12.90;99.90;;;;;;5031015;28;20487;-74
2022/10/06 01:51:29;;;;;;;5.90;4.80;;;12.90;99.90;;;;;;5031159;28;20160;-74
2022/10/06 01:53:55;;;;;;;7.40;4.90;;;12.90;99.90;;;;;;5031226;28;20044;-75
2022/10/06 01:56:20;;;;;;;5.70;5.10;;;12.90;99.90;;;;;;5031242;28;20044;-74
2022/10/06 01:58:47;;;;;;;9.00;4.80;;;12.90;99.90;;;;;;5030893;28;20029;-74
2022/10/06 02:01:13;;;;;;;6.15;4.70;;;12.90;99.90;;;;;;5031152;28;20096;-75
2022/10/06 02:03:39;;;;;;;5.88;4.60;;;12.90;99.90;;;;;;5031163;28;20112;-74
2022/10/06 02:06:05;;;;;;;6.57;4.32;;;12.90;99.90;;;;;;5033876;28;20033;-74
2022/10/06 02:08:31;;;;;;;8.52;5.18;;;12.90;99.90;;;;;;5033395;28;20026;-74
2022/10/06 02:10:57;;;;;;;5.90;4.10;;;12.90;99.90;;;;;;5034999;28;20018;-74
2022/10/06 02:13:26;;;;;;;7.78;4.93;;;12.90;99.90;;;;;;5034746;28;20395;-74
2022/10/06 02:15:56;;;;;;;10.52;5.20;;;12.90;99.90;;;;;;5034740;28;20028;-74
2022/10/06 02:18:22;;;;;;;4.95;4.10;;;12.90;99.90;;;;;;5034537;28;20072;-73
2022/10/06 02:20:48;;;;;;;7.28;4.55;;;12.80;99.90;;;;;;5033102;28;20029;-74
2022/10/06 02:23:14;;;;;;;6.15;4.80;;;12.80;99.90;;;;;;5034797;28;20093;-74
2022/10/06 02:25:39;;;;;;;8.45;5.30;;;12.80;99.90;;;;;;5035338;28;20064;-74
2022/10/06 02:28:05;;;;;;;7.18;4.70;;;12.70;99.90;;;;;;5033012;28;20398;-74
2022/10/06 02:30:30;;;;;;;6.22;4.53;;;12.70;99.90;;;;;;5034404;28;20598;-75
2022/10/06 02:32:56;;;;;;;7.57;4.57;;;12.70;99.90;;;;;;5033169;28;20021;-74
2022/10/06 02:35:22;;;;;;;7.25;4.40;;;12.70;99.90;;;;;;5034403;28;20113;-73
2022/10/06 02:37:48;;;;;;;5.35;4.15;;;12.70;99.90;;;;;;5034241;28;20446;-74
2022/10/06 02:40:15;;;;;;;6.85;4.55;;;12.70;99.90;;;;;;5034261;28;20032;-74
2022/10/06 02:42:40;;;;;;;6.22;4.18;;;12.70;99.90;;;;;;5034212;28;20014;-74
2022/10/06 02:45:06;;;;;;;6.68;4.45;;;12.70;99.90;;;;;;5034186;28;20036;-74
2022/10/06 02:47:34;;;;;;;6.72;4.32;;;12.70;99.90;;;;;;5033981;28;20361;-74
2022/10/06 02:50:00;;;;;;;7.22;4.40;;;12.60;99.90;;;;;;5034222;28;20484;-75
2022/10/06 02:52:33;;;;;;;5.28;4.15;;;12.60;99.90;;;;;;5034016;28;20030;-74
2022/10/06 02:55:01;;;;;;;8.15;4.50;;;12.60;99.90;;;;;;5034231;28;20036;-74
2022/10/06 02:57:26;;;;;;;8.65;4.47;;;12.60;99.90;;;;;;5033866;28;20025;-74
2022/10/06 02:59:52;;;;;;;6.32;4.30;;;12.60;99.90;;;;;;5033823;28;20479;-74
2022/10/06 03:02:18;;;;;;;5.20;4.28;;;12.60;99.90;;;;;;5033911;28;20029;-74
2022/10/06 03:04:43;;;;;;;6.95;4.28;;;12.60;99.90;;;;;;5033688;28;20025;-73
2022/10/06 03:07:09;;;;;;;9.15;4.90;;;12.60;99.90;;;;;;5033661;28;20021;-74
2022/10/06 03:09:34;;;;;;;6.95;4.15;;;12.70;99.90;;;;;;5032478;28;20025;-74
2022/10/06 03:12:00;;;;;;;7.60;4.50;;;12.70;99.90;;;;;;5033634;28;20075;-74
2022/10/06 03:14:25;;;;;;;9.43;7.55;;;12.70;99.90;;;;;;5032308;28;20511;-74
2022/10/06 03:16:51;;;;;;;9.50;6.40;;;12.70;99.90;;;;;;5030976;28;20555;-74
2022/10/06 03:19:16;;;;;;;6.82;4.60;;;12.50;99.90;;;;;;5033424;28;20039;-74
2022/10/06 03:21:43;;;;;;;5.88;4.32;;;12.40;99.90;;;;;;5033390;28;20496;-74
2022/10/06 03:24:09;;;;;;;6.32;4.10;;;12.20;99.90;;;;;;5033507;28;20021;-73
2022/10/06 03:26:43;;;;;;;5.97;4.38;;;12.10;99.90;;;;;;5032142;28;20529;-74
2022/10/06 03:29:10;;;;;;;11.48;5.72;;;12.00;99.90;;;;;;5033272;28;20091;-74
2022/10/06 03:31:36;;;;;;;13.30;8.30;;;11.90;99.90;;;;;;5031997;28;20025;-74
2022/10/06 03:34:02;;;;;;;16.63;8.90;;;12.00;99.90;;;;;;5033441;28;20386;-74
2022/10/06 03:36:31;;;;;;;12.57;7.97;;;12.10;99.90;;;;;;5033276;28;20033;-74
2022/10/06 03:38:57;;;;;;;13.43;7.80;;;12.20;99.90;;;;;;5032902;28;20087;-75
2022/10/06 03:41:28;;;;;;;8.68;5.80;;;12.20;99.90;;;;;;5033026;28;20379;-74
2022/10/06 03:43:55;;;;;;;9.55;5.38;;;12.30;99.90;;;;;;5031938;28;20026;-74
2022/10/06 03:46:22;;;;;;;5.18;3.90;;;12.40;99.90;;;;;;5033292;28;20521;-74
2022/10/06 03:48:50;;;;;;;8.35;4.47;;;12.40;99.90;;;;;;5031493;28;20037;-74
2022/10/06 03:51:22;;;;;;;7.32;4.68;;;12.50;99.90;;;;;;5032977;28;20037;-74
2022/10/06 03:53:50;;;;;;;10.93;5.65;;;12.50;99.90;;;;;;5014488;28;20033;-74
2022/10/06 03:56:36;;;;;;;8.18;5.47;;;12.60;99.90;;;;;;5013192;28;20022;-74
2022/10/06 03:59:05;;;;;;;9.25;5.53;;;12.60;99.90;;;;;;5012886;28;20030;-74
2022/10/06 04:01:36;;;;;;;12.52;5.10;;;12.60;99.90;;;;;;5012904;28;20237;-74
2022/10/06 04:04:03;;;;;;;6.32;4.85;;;12.60;99.90;;;;;;5013077;28;20105;-74
2022/10/06 04:06:31;;;;;;;6.97;4.93;;;12.70;99.90;;;;;;5028593;28;20028;-74
2022/10/06 04:08:56;;;;;;;5.10;4.40;;;12.80;99.90;;;;;;5031237;28;20022;-74
2022/10/06 04:11:28;;;;;;;5.07;4.57;;;12.80;99.90;;;;;;5032509;28;20032;-74
2022/10/06 04:13:59;;;;;;;8.93;4.97;;;12.90;99.90;;;;;;5032782;28;20101;-77
2022/10/06 04:16:27;;;;;;;6.82;4.13;;;13.00;99.90;;;;;;5033624;28;20108;-74
2022/10/06 04:18:56;;;;;;;6.25;4.38;;;13.00;99.90;;;;;;5032108;28;20364;-74
2022/10/06 04:21:23;;;;;;;5.60;4.32;;;13.10;99.90;;;;;;5030875;28;20030;-74
2022/10/06 04:23:50;;;;;;;7.03;4.68;;;13.10;99.90;;;;;;5031152;28;20018;-74
2022/10/06 04:26:18;;;;;;;8.73;4.65;;;13.10;99.90;;;;;;5032294;28;20498;-74
2022/10/06 04:28:44;;;;;;;7.88;4.18;;;13.20;99.90;;;;;;5032161;28;20427;-73
2022/10/06 04:31:23;;;;;;;8.20;4.57;;;13.10;99.90;;;;;;5032167;28;20021;-74
2022/10/06 04:33:56;;;;;;;8.52;4.10;;;13.20;99.90;;;;;;5031059;28;20028;-74
2022/10/06 04:36:28;;;;;;;8.82;4.60;;;13.20;99.90;;;;;;5032195;28;20018;-74
2022/10/06 04:38:57;;;;;;;11.77;4.50;;;13.20;99.90;;;;;;5031788;28;20080;-73
2022/10/06 04:41:25;;;;;;;6.80;4.55;;;13.20;99.90;;;;;;5030708;28;20048;-74
2022/10/06 04:43:51;;;;;;;8.02;4.57;;;13.20;99.90;;;;;;5030663;28;20018;-74
2022/10/06 04:46:18;;;;;;;6.22;4.05;;;13.20;99.90;;;;;;5031996;28;20475;-74
2022/10/06 04:48:44;;;;;;;8.93;4.95;;;13.20;99.90;;;;;;5031770;28;20028;-74
2022/10/06 04:51:12;;;;;;;8.15;4.50;;;13.20;99.90;;;;;;5032084;28;20018;-74
2022/10/06 04:53:38;;;;;;;7.18;4.45;;;13.30;99.90;;;;;;5031882;28;20040;-73
2022/10/06 04:56:19;;;;;;;7.65;5.55;;;13.20;99.90;;;;;;5032141;28;20476;-74
2022/10/06 04:58:47;;;;;;;6.57;5.78;;;13.20;99.90;;;;;;5027633;28;20022;-75
2022/10/06 05:01:30;;;;;;;7.97;4.95;;;13.20;99.90;;;;;;5011985;28;20472;-75
2022/10/06 05:03:57;;;;;;;6.25;4.18;;;13.30;99.90;;;;;;5011951;28;20026;-74
2022/10/06 05:06:26;;;;;;;7.93;4.50;;;13.30;99.90;;;;;;5027079;28;20053;-74
2022/10/06 05:09:03;;;;;;;8.73;5.07;;;13.30;99.90;;;;;;5031435;28;20018;-74
2022/10/06 05:11:30;;;;;;;8.65;5.15;;;13.30;99.90;;;;;;5031395;28;20513;-74
2022/10/06 05:13:57;;;;;;;7.95;5.70;;;13.30;99.90;;;;;;5031697;28;20036;-74
2022/10/06 05:16:24;;;;;;;5.78;5.18;;;13.40;99.90;;;;;;5031590;28;20033;-73
2022/10/06 05:18:50;;;;;;;8.68;4.90;;;13.30;99.90;;;;;;5031216;28;20070;-74
2022/10/06 05:21:24;;;;;;;6.90;5.20;;;13.30;99.90;;;;;;5031921;28;20445;-74
2022/10/06 05:23:50;;;;;;;7.32;5.28;;;13.30;99.90;;;;;;5031547;28;20025;-74
2022/10/06 05:26:18;;;;;;;8.05;5.20;;;13.30;99.90;;;;;;5031512;28;20033;-74
2022/10/06 05:28:44;;;;;;;8.02;5.05;;;13.30;99.90;;;;;;5031287;28;20022;-74
2022/10/06 05:31:16;;;;;;;7.70;4.90;;;13.30;99.90;;;;;;5031294;28;20021;-74
2022/10/06 05:33:41;;;;;;;7.15;4.82;;;13.30;99.90;;;;;;5031385;28;20083;-75
2022/10/06 05:36:16;;;;;;;6.93;4.63;;;13.30;99.90;;;;;;5030078;28;20025;-75
2022/10/06 05:38:43;;;;;;;7.70;5.53;;;13.30;99.90;;;;;;5031065;28;20034;-75
2022/10/06 05:41:14;;;;;;;9.50;4.95;;;13.20;99.90;;;;;;5033326;28;20396;-74
2022/10/06 05:43:40;;;;;;;11.13;5.50;;;13.30;99.90;;;;;;5035320;28;20542;-75
2022/10/06 05:46:16;;;;;;;10.60;6.93;;;13.30;99.90;;;;;;5035403;28;20064;-75
2022/10/06 05:48:43;;;;;;;84.50;43.88;;;13.20;99.90;;;;;;5033755;28;20037;-75
2022/10/06 05:51:09;;;;;;;127.97;63.20;;;13.20;99.90;;;;;;5033977;28;20057;-74
2022/10/06 05:53:35;;;;;;;189.38;117.38;;;13.20;99.90;;;;;;5035122;28;20056;-75
2022/10/06 05:56:14;;;;;;;27.58;17.23;;;13.20;99.90;;;;;;5035261;28;20121;-74
2022/10/06 05:58:42;;;;;;;8.15;6.53;;;13.10;99.90;;;;;;5033454;28;20022;-75
2022/10/06 06:01:13;;;;;;;55.80;33.60;;;12.90;99.90;;;;;;5033704;28;20017;-75
2022/10/06 06:03:41;;;;;;;14.77;7.65;;;12.90;99.90;;;;;;5034935;28;20104;-74
2022/10/06 06:06:31;;;;;;;12.05;8.68;;;12.90;99.90;;;;;;5035113;28;20033;-74
2022/10/06 06:09:03;;;;;;;13.40;7.22;;;13.00;99.90;;;;;;5034757;28;20032;-74
2022/10/06 06:11:30;;;;;;;15.30;11.10;;;12.90;99.90;;;;;;5033375;28;20088;-75
2022/10/06 06:13:57;;;;;;;12.23;7.88;;;12.90;99.90;;;;;;5034964;28;20541;-75
2022/10/06 06:16:23;;;;;;;12.90;7.53;;;13.00;99.90;;;;;;5034729;28;20029;-75
2022/10/06 06:18:49;;;;;;;11.27;8.52;;;12.90;99.90;;;;;;5034519;28;20022;-74
2022/10/06 06:21:15;;;;;;;9.15;7.72;;;12.90;99.90;;;;;;5033261;28;20048;-75
2022/10/06 06:23:45;;;;;;;12.90;8.65;;;12.90;99.90;;;;;;5034669;28;20021;-74
2022/10/06 06:26:16;;;;;;;12.57;8.25;;;12.90;99.90;;;;;;5030135;28;20026;-74
2022/10/06 06:28:45;;;;;;;12.68;8.27;;;13.00;99.90;;;;;;5014705;28;20468;-74
2022/10/06 06:31:16;;;;;;;13.60;7.95;;;13.00;99.90;;;;;;5014750;28;20092;-74
2022/10/06 06:33:42;;;;;;;12.30;7.57;;;13.10;99.90;;;;;;5013414;28;20434;-75
2022/10/06 06:36:24;;;;;;;11.45;7.85;;;13.10;99.90;;;;;;5014652;28;20096;-74
2022/10/06 06:38:52;;;;;;;11.55;8.43;;;13.10;99.90;;;;;;5014314;28;20088;-75
2022/10/06 06:41:26;;;;;;;12.63;8.23;;;13.10;99.90;;;;;;5014744;28;20029;-75
2022/10/06 06:43:52;;;;;;;13.77;8.25;;;13.10;99.90;;;;;;5014421;28;20022;-75
2022/10/06 06:46:19;;;;;;;13.02;8.52;;;13.20;99.90;;;;;;5014680;28;20030;-75
2022/10/06 06:48:46;;;;;;;14.07;9.75;;;13.30;99.90;;;;;;5014102;28;20064;-75
2022/10/06 06:51:12;;;;;;;20.35;14.57;;;13.20;99.90;;;;;;5014315;28;20029;-75
2022/10/06 06:53:39;;;;;;;25.48;16.65;;;13.30;99.90;;;;;;5012961;28;20496;-75
2022/10/06 06:56:05;;;;;;;40.70;29.80;;;13.40;99.90;;;;;;5014235;28;20069;-75
2022/10/06 06:58:31;;;;;;;33.55;22.50;;;13.40;99.90;;;;;;5013959;28;20026;-75
2022/10/06 07:01:12;;;;;;;22.25;16.08;;;13.50;99.90;;;;;;5012790;28;20044;-75
2022/10/06 07:03:39;;;;;;;15.68;13.40;;;13.50;99.90;;;;;;5014130;28;20467;-74
2022/10/06 07:06:11;;;;;;;11.60;7.45;;;13.50;99.90;;;;;;5026919;28;20028;-75
2022/10/06 07:08:38;;;;;;;14.48;9.38;;;13.50;99.90;;;;;;5034272;28;20033;-74
2022/10/06 07:11:15;;;;;;;15.40;10.98;;;13.50;99.90;;;;;;5033733;28;20383;-75
2022/10/06 07:13:41;;;;;;;8.18;6.72;;;13.50;99.90;;;;;;5020606;28;20020;-74
2022/10/06 07:27:22;;;;;;;9.43;5.93;;;13.60;99.90;;;;;;5026943;28;20087;-75
2022/10/06 07:29:52;;;;;;;8.18;5.40;;;13.60;99.90;;;;;;5020204;28;20390;-75
2022/10/06 07:32:20;;;;;;;9.82;5.45;;;13.70;99.90;;;;;;5033403;28;20026;-75
2022/10/06 07:34:46;;;;;;;13.32;4.97;;;13.70;99.90;;;;;;5031967;28;20026;-74
2022/10/06 07:37:11;;;;;;;6.72;4.18;;;13.70;99.90;;;;;;5033292;28;20379;-75
2022/10/06 07:39:37;;;;;;;7.53;3.25;;;13.70;99.90;;;;;;5033223;28;20045;-75
2022/10/06 07:42:06;;;;;;;6.78;3.78;;;13.80;99.90;;;;;;5033004;28;20030;-75
2022/10/06 07:44:32;;;;;;;6.32;3.67;;;13.90;99.90;;;;;;5033214;28;20096;-74
2022/10/06 07:46:57;;;;;;;7.93;3.78;;;13.90;99.90;;;;;;5033310;28;20471;-75
2022/10/06 07:49:23;;;;;;;6.10;3.20;;;14.00;99.90;;;;;;5033491;28;20494;-75
2022/10/06 07:51:48;;;;;;;6.45;2.65;;;14.00;99.90;;;;;;5032890;28;20037;-75
2022/10/06 07:54:14;;;;;;;4.78;2.40;;;14.20;99.90;;;;;;5033007;28;20084;-75
2022/10/06 07:56:39;;;;;;;4.85;2.20;;;14.20;99.90;;;;;;5032843;28;20088;-75
2022/10/06 07:59:05;;;;;;;4.40;1.83;;;14.30;99.90;;;;;;5032633;28;20043;-75
2022/10/06 08:01:30;;;;;;;5.55;2.13;;;14.40;99.90;;;;;;5031417;28;20026;-74
2022/10/06 08:03:56;;;;;;;2.83;1.75;;;14.50;99.90;;;;;;5032595;28;20309;-75
2022/10/06 08:06:22;;;;;;;4.68;1.95;;;14.60;99.90;;;;;;5032251;28;20055;-74
2022/10/06 08:08:51;;;;;;;6.05;1.85;;;14.60;99.90;;;;;;5032527;28;20068;-75
2022/10/06 08:11:16;;;;;;;4.50;2.17;;;14.50;99.90;;;;;;5032469;28;20032;-75
2022/10/06 08:13:43;;;;;;;4.05;1.60;;;14.50;99.90;;;;;;5031317;28;20025;-75
2022/10/06 08:16:14;;;;;;;6.10;2.10;;;14.60;99.90;;;;;;5032494;28;20026;-75
2022/10/06 08:18:41;;;;;;;3.38;1.60;;;14.70;99.90;;;;;;5032250;28;20022;-75
2022/10/06 08:21:15;;;;;;;4.55;1.70;;;14.80;99.90;;;;;;5032316;28;20021;-75
2022/10/06 08:23:41;;;;;;;2.38;1.50;;;14.80;99.90;;;;;;5032799;28;20538;-75
2022/10/06 08:26:09;;;;;;;4.85;1.80;;;14.70;99.90;;;;;;5032325;28;20344;-75
2022/10/06 08:28:35;;;;;;;3.28;1.67;;;14.80;99.90;;;;;;5032177;28;20017;-74
2022/10/06 08:31:10;;;;;;;4.28;1.88;;;14.80;99.90;;;;;;5032094;28;20033;-75
2022/10/06 08:33:43;;;;;;;6.40;1.70;;;14.80;99.90;;;;;;5031113;28;20072;-75
2022/10/06 08:36:15;;;;;;;4.57;1.85;;;14.80;99.90;;;;;;5032190;28;20041;-74
2022/10/06 08:38:41;;;;;;;7.25;2.00;;;14.70;99.90;;;;;;5031840;28;20025;-75
2022/10/06 08:41:16;;;;;;;5.25;2.17;;;14.90;99.90;;;;;;5025187;28;20096;-75
2022/10/06 08:43:46;;;;;;;6.93;1.85;;;14.80;99.90;;;;;;5010977;28;20176;-75
2022/10/06 08:46:13;;;;;;;4.38;1.77;;;14.70;99.90;;;;;;5011118;28;20017;-74
2022/10/06 08:48:39;;;;;;;2.83;1.50;;;14.60;99.90;;;;;;5012087;28;20041;-74
2022/10/06 08:51:17;;;;;;;5.78;1.73;;;14.90;99.90;;;;;;5012192;28;20392;-75
2022/10/06 08:54:00;;;;;;;2.95;1.42;;;14.90;99.90;;;;;;5012121;28;20484;-75
2022/10/06 08:56:32;;;;;;;3.58;1.48;;;14.80;99.90;;;;;;5012185;28;20499;-76
2022/10/06 08:59:05;;;;;;;3.45;1.35;;;14.80;99.90;;;;;;5011925;28;20387;-75
2022/10/06 09:01:50;;;;;;;3.28;1.60;;;14.80;99.90;;;;;;5011988;28;20069;-75
2022/10/06 09:04:27;;;;;;;3.25;1.40;;;14.70;99.90;;;;;;5012038;28;20025;-75
2022/10/06 09:07:02;;;;;;;4.38;1.85;;;14.80;99.90;;;;;;5030816;28;20391;-75
2022/10/06 09:09:43;;;;;;;4.43;1.70;;;14.80;99.90;;;;;;5031743;28;20057;-75
2022/10/06 09:12:22;;;;;;;6.95;1.88;;;14.80;99.90;;;;;;5031647;28;20041;-75
2022/10/06 09:15:05;;;;;;;6.50;1.50;;;15.00;99.90;;;;;;5031531;28;20479;-75
2022/10/06 09:17:36;;;;;;;5.50;1.45;;;14.90;99.90;;;;;;5030327;28;20029;-74
2022/10/06 09:20:19;;;;;;;2.85;1.65;;;15.10;99.90;;;;;;5031784;28;20031;-74
2022/10/06 09:22:47;;;;;;;3.10;1.30;;;15.30;99.90;;;;;;5031498;28;20029;-75
2022/10/06 09:25:27;;;;;;;5.15;1.92;;;15.40;99.90;;;;;;5031983;28;20041;-75
2022/10/06 09:27:54;;;;;;;3.53;1.70;;;15.40;99.90;;;;;;5029999;28;20025;-74
2022/10/06 09:30:20;;;;;;;3.28;1.50;;;15.50;99.90;;;;;;5031573;28;20513;-74
2022/10/06 09:32:52;;;;;;;4.80;1.40;;;15.60;99.90;;;;;;5031230;28;20065;-74
2022/10/06 09:35:20;;;;;;;4.68;1.77;;;15.80;99.90;;;;;;5032049;28;20471;-74
2022/10/06 09:38:03;;;;;;;4.97;1.83;;;15.70;99.90;;;;;;5031093;28;20033;-75
2022/10/06 09:40:53;;;;;;;3.33;1.45;;;15.80;99.90;;;;;;5029949;28;20349;-74
2022/10/06 09:43:27;;;;;;;3.40;1.67;;;15.70;99.90;;;;;;5011737;28;20029;-75
2022/10/06 09:45:54;;;;;;;3.58;1.30;;;15.80;99.90;;;;;;5011528;28;20057;-74
2022/10/06 09:48:24;;;;;;;2.58;1.02;;;15.70;99.90;;;;;;5011602;28;20022;-75
2022/10/06 09:51:12;;;;;;;2.70;1.20;;;15.50;99.90;;;;;;5011481;28;20034;-74
2022/10/06 09:53:38;;;;;;;4.82;1.98;;;15.50;99.90;;;;;;5010311;28;20029;-75
2022/10/06 09:56:19;;;;;;;3.75;1.27;;;15.70;99.90;;;;;;5013421;28;20026;-74
2022/10/06 09:58:56;;;;;;;3.40;1.40;;;15.40;99.90;;;;;;5011263;28;20388;-75
2022/10/06 10:01:27;;;;;;;4.15;1.45;;;15.60;99.90;;;;;;5011506;28;20052;-74
2022/10/06 10:04:06;;;;;;;2.67;1.95;;;15.50;99.90;;;;;;5010243;28;20036;-74
2022/10/06 10:06:33;;;;;;;2.88;1.38;;;15.70;99.90;;;;;;5027622;28;20368;-74
2022/10/06 10:09:28;;;;;;;7.00;1.67;;;15.80;99.90;;;;;;5029581;28;20092;-74
2022/10/06 10:15:32;;;;;;;1.83;1.20;;;16.10;99.90;;;;;;5011656;28;20028;-75
2022/10/06 10:18:01;;;;;;;2.50;1.23;;;16.10;99.90;;;;;;5007659;28;20310;-75
2022/10/06 10:20:32;;;;;;;2.85;0.98;;;16.20;99.90;;;;;;5011266;28;20022;-74
2022/10/06 10:23:01;;;;;;;3.42;1.38;;;16.10;99.90;;;;;;5009856;28;20419;-74
2022/10/06 10:25:36;;;;;;;2.90;1.10;;;16.00;99.90;;;;;;5011509;28;20033;-74
2022/10/06 10:28:20;;;;;;;3.75;1.10;;;16.10;99.90;;;;;;5014588;28;20107;-75
2022/10/06 10:30:52;;;;;;;3.22;1.42;;;16.00;99.90;;;;;;5013337;28;20138;-74
2022/10/06 10:33:23;;;;;;;1.98;1.10;;;16.30;99.90;;;;;;5014747;28;20029;-74
2022/10/06 10:35:54;;;;;;;3.40;1.40;;;16.10;99.90;;;;;;5014643;28;20021;-74
2022/10/06 10:38:22;;;;;;;2.50;0.90;;;16.10;99.90;;;;;;5013463;28;20375;-74
2022/10/06 10:40:53;;;;;;;3.45;1.45;;;16.00;99.90;;;;;;5013079;28;20026;-75
2022/10/06 10:43:31;;;;;;;2.08;0.90;;;16.20;99.90;;;;;;5014609;28;20103;-75
2022/10/06 10:46:09;;;;;;;4.22;1.38;;;16.10;99.90;;;;;;5014447;28;20068;-75
2022/10/06 10:48:53;;;;;;;2.53;1.20;;;16.10;99.90;;;;;;5014863;28;20022;-74
2022/10/06 10:51:27;;;;;;;2.20;1.00;;;16.10;99.90;;;;;;5013091;28;20053;-74
2022/10/06 10:54:13;;;;;;;4.43;1.23;;;16.20;99.90;;;;;;5014324;28;20083;-74
2022/10/06 10:56:39;;;;;;;2.20;1.65;;;16.30;99.90;;;;;;5027205;28;20483;-74
2022/10/06 10:59:32;;;;;;;1.45;1.00;;;16.30;99.90;;;;;;5033829;28;20045;-75
2022/10/06 11:02:18;;;;;;;3.78;1.00;;;16.30;99.90;;;;;;5033691;28;20025;-75
2022/10/06 11:04:48;;;;;;;2.95;1.17;;;16.20;99.90;;;;;;5033288;28;20025;-75
2022/10/06 11:07:31;;;;;;;3.95;1.40;;;16.10;99.90;;;;;;5033572;28;20506;-75
2022/10/06 11:10:12;;;;;;;6.38;1.30;;;16.10;99.90;;;;;;5033719;28;20025;-74
2022/10/06 11:13:11;;;;;;;2.25;1.20;;;16.20;99.90;;;;;;5033697;28;20471;-75
2022/10/06 11:16:10;;;;;;;3.33;1.35;;;16.30;99.90;;;;;;5032479;28;20041;-74
2022/10/06 11:18:48;;;;;;;2.58;1.00;;;16.40;99.90;;;;;;4978928;28;20124;-75
2022/10/06 11:21:39;;;;;;;3.58;1.20;;;16.60;99.90;;;;;;5058938;22;20041;-71
2022/10/06 11:24:18;;;;;;;3.00;1.23;;;16.70;99.90;;;;;;5052269;28;20033;-74
2022/10/06 11:26:55;;;;;;;2.22;1.10;;;16.60;99.90;;;;;;5052819;28;20502;-74
2022/10/06 11:29:33;;;;;;;3.33;1.20;;;16.60;99.90;;;;;;5054833;28;20036;-74
2022/10/06 11:32:23;;;;;;;2.58;0.93;;;16.60;99.90;;;;;;5045678;28;20025;-74
2022/10/06 11:34:49;;;;;;;3.08;1.00;;;16.50;99.90;;;;;;5033683;28;20056;-74
2022/10/06 11:37:59;;;;;;;3.42;0.98;;;16.60;99.90;;;;;;5032081;28;20056;-74
2022/10/06 11:40:58;;;;;;;3.92;1.15;;;17.00;99.90;;;;;;4991386;28;20069;-73
2022/10/06 11:43:54;;;;;;;3.28;1.13;;;17.20;99.90;;;;;;5033218;28;20025;-74
2022/10/06 11:46:25;;;;;;;3.30;1.20;;;17.40;99.90;;;;;;5023804;28;20034;-74
2022/10/06 11:48:51;;;;;;;3.15;0.90;;;18.00;99.90;;;;;;5032909;28;20026;-74
2022/10/06 11:51:23;;;;;;;3.60;1.17;;;18.50;99.90;;;;;;5032988;28;20017;-74
2022/10/06 11:53:49;;;;;;;3.28;1.20;;;19.20;99.90;;;;;;5033289;28;20022;-75
2022/10/06 11:56:17;;;;;;;3.17;1.08;;;19.50;99.90;;;;;;5033047;28;20026;-74
2022/10/06 11:58:54;;;;;;;1.85;1.00;;;19.20;99.90;;;;;;5032676;28;20021;-74
2022/10/06 12:01:38;;;;;;;4.22;1.02;;;19.20;99.90;;;;;;5031426;28;20088;-74
2022/10/06 12:04:06;;;;;;;3.38;0.85;;;19.60;99.90;;;;;;5031647;28;20057;-74
2022/10/06 12:06:47;;;;;;;4.28;1.00;;;19.60;99.90;;;;;;5029745;28;20033;-74
2022/10/06 12:09:24;;;;;;;2.95;1.35;;;19.80;99.90;;;;;;5013062;28;20026;-74
2022/10/06 12:11:55;;;;;;;4.40;1.20;;;19.90;99.90;;;;;;5019590;28;20033;-74
2022/10/06 12:14:45;;;;;;;2.30;0.98;;;20.90;99.90;;;;;;5032716;28;20018;-74
2022/10/06 12:17:30;;;;;;;3.88;1.35;;;21.60;99.90;;;;;;5031178;28;20056;-74
2022/10/06 12:20:01;;;;;;;3.80;1.00;;;20.20;99.90;;;;;;5032449;28;20068;-74
2022/10/06 12:22:33;;;;;;;2.58;0.90;;;19.30;99.90;;;;;;5032286;28;20077;-74
2022/10/06 12:25:30;;;;;;;2.60;1.10;;;19.50;99.90;;;;;;5031196;28;20048;-74
2022/10/06 12:28:04;;;;;;;2.50;1.02;;;19.70;99.90;;;;;;5032200;28;20057;-75
2022/10/06 12:30:45;;;;;;;4.45;1.08;;;19.60;99.90;;;;;;5032247;28;20055;-75
2022/10/06 12:33:18;;;;;;;2.55;1.02;;;20.10;99.90;;;;;;5032309;28;20029;-74
2022/10/06 12:35:44;;;;;;;2.65;1.00;;;21.60;99.90;;;;;;5032244;28;20030;-74
2022/10/06 12:38:41;;;;;;;3.70;1.50;;;21.70;99.90;;;;;;5032017;28;20356;-75
2022/10/06 12:41:11;;;;;;;2.08;1.10;;;21.80;99.90;;;;;;5032030;28;20025;-74
2022/10/06 12:43:52;;;;;;;2.83;1.17;;;22.50;99.90;;;;;;5032049;28;20079;-75
2022/10/06 12:46:27;;;;;;;4.05;1.40;;;20.80;99.90;;;;;;5032090;28;20390;-75
2022/10/06 12:49:13;;;;;;;2.45;1.20;;;20.40;99.90;;;;;;5031700;28;20535;-75
2022/10/06 12:51:41;;;;;;;2.95;1.20;;;22.00;99.90;;;;;;5031831;28;20036;-74
2022/10/06 12:54:14;;;;;;;1.42;0.90;;;23.20;99.90;;;;;;5032007;28;20057;-75
2022/10/06 12:56:41;;;;;;;4.40;1.40;;;23.50;99.90;;;;;;5031924;28;20060;-75
2022/10/06 12:59:20;;;;;;;2.30;1.20;;;22.80;99.90;;;;;;5031692;28;20034;-74
2022/10/06 13:01:50;;;;;;;4.03;1.20;;;21.40;99.90;;;;;;5031684;28;20486;-74
2022/10/06 13:04:51;;;;;;;2.33;1.10;;;21.50;99.90;;;;;;5031940;28;20053;-75
2022/10/06 13:07:28;;;;;;;4.88;1.13;;;22.30;99.90;;;;;;5011895;28;20022;-75
2022/10/06 13:10:14;;;;;;;3.03;1.13;;;23.10;99.90;;;;;;5012339;28;20400;-74
2022/10/06 13:12:45;;;;;;;2.25;1.00;;;24.20;99.90;;;;;;5020955;28;20116;-75
2022/10/06 13:15:22;;;;;;;2.97;1.02;;;24.30;99.90;;;;;;5034112;28;20386;-74
2022/10/06 13:17:57;;;;;;;3.47;1.27;;;24.00;99.90;;;;;;5016530;28;20029;-75
2022/10/06 13:20:25;;;;;;;5.05;1.30;;;23.20;99.90;;;;;;5010660;28;20175;-75